sensor_id;sensor_type;location;lat;lon;timestamp;temperature;humidity
14775;DHT22;7479;47.042;15.160;2023-02-13T10:14:43;6.50;99.90
14775;DHT22;7479;47.042;15.160;2023-02-13T10:19:41;6.90;99.90
14775;DHT22;7479;47.042;15.160;2023-02-13T10:24:39;7.30;99.90
14775;DHT22;7479;47.042;15.160;2023-02-13T10:29:41;7.50;99.90
14775;DHT22;7479;47.042;15.160;2023-02-13T10:34:54;7.80;99.90
14775;DHT22;7479;47.042;15.160;2023-02-13T10:39:52;8.00;99.90
14775;DHT22;7479;47.042;15.160;2023-02-13T10:45:08;8.30;99.90
14775;DHT22;7479;47.042;15.160;2023-02-13T10:50:16;8.60;99.90
14775;DHT22;7479;47.042;15.160;2023-02-13T10:55:25;8.80;99.90
14775;DHT22;7479;47.042;15.160;2023-02-13T11:00:26;9.10;99.90
14775;DHT22;7479;47.042;15.160;2023-02-13T11:05:25;9.60;99.90
14775;DHT22;7479;47.042;15.160;2023-02-13T11:10:22;9.90;98.90
14775;DHT22;7479;47.042;15.160;2023-02-13T11:15:23;10.20;97.70
14775;DHT22;7479;47.042;15.160;2023-02-13T11:20:25;10.50;97.20
14775;DHT22;7479;47.042;15.160;2023-02-13T11:25:22;10.80;97.10
14775;DHT22;7479;47.042;15.160;2023-02-13T11:30:31;11.10;96.40
14775;DHT22;7479;47.042;15.160;2023-02-13T11:35:27;11.20;95.80
14775;DHT22;7479;47.042;15.160;2023-02-13T11:40:30;11.50;95.00
14775;DHT22;7479;47.042;15.160;2023-02-13T11:45:25;11.80;94.30
14775;DHT22;7479;47.042;15.160;2023-02-13T11:50:24;12.10;93.00
14775;DHT22;7479;47.042;15.160;2023-02-13T11:55:27;12.50;92.00
14775;DHT22;7479;47.042;15.160;2023-02-13T12:00:29;13.00;91.50
14775;DHT22;7479;47.042;15.160;2023-02-13T12:05:27;13.40;90.00
14775;DHT22;7479;47.042;15.160;2023-02-13T12:10:23;13.80;86.40
14775;DHT22;7479;47.042;15.160;2023-02-13T12:15:18;13.50;86.70
14775;DHT22;7479;47.042;15.160;2023-02-13T12:20:15;13.80;87.70
14775;DHT22;7479;47.042;15.160;2023-02-13T12:25:34;14.40;84.60
14775;DHT22;7479;47.042;15.160;2023-02-13T12:31:12;14.60;82.50
14775;DHT22;7479;47.042;15.160;2023-02-13T12:36:10;14.80;80.50
14775;DHT22;7479;47.042;15.160;2023-02-13T12:41:16;14.70;78.80
14775;DHT22;7479;47.042;15.160;2023-02-13T12:46:15;15.00;79.10
14775;DHT22;7479;47.042;15.160;2023-02-13T12:51:24;15.40;76.80
14775;DHT22;7479;47.042;15.160;2023-02-13T12:56:35;15.70;74.70
14775;DHT22;7479;47.042;15.160;2023-02-13T13:07:25;15.80;74.40
14775;DHT22;7479;47.042;15.160;2023-02-13T13:12:30;16.10;72.30
14775;DHT22;7479;47.042;15.160;2023-02-13T13:17:38;16.20;71.60
14775;DHT22;7479;47.042;15.160;2023-02-13T13:22:40;16.70;70.00
14775;DHT22;7479;47.042;15.160;2023-02-13T13:27:41;17.30;69.00
14775;DHT22;7479;47.042;15.160;2023-02-13T13:32:37;18.20;66.00
14775;DHT22;7479;47.042;15.160;2023-02-13T13:37:35;18.90;63.30
14775;DHT22;7479;47.042;15.160;2023-02-13T13:42:37;19.40;62.80
14775;DHT22;7479;47.042;15.160;2023-02-13T13:47:44;19.60;60.90
14775;DHT22;7479;47.042;15.160;2023-02-13T13:53:10;19.80;59.00
14775;DHT22;7479;47.042;15.160;2023-02-13T13:58:04;19.90;58.20
14775;DHT22;7479;47.042;15.160;2023-02-13T14:03:23;20.10;57.50
14775;DHT22;7479;47.042;15.160;2023-02-13T14:13:59;20.30;56.50
14775;DHT22;7479;47.042;15.160;2023-02-13T14:18:54;20.50;55.80
14775;DHT22;7479;47.042;15.160;2023-02-13T14:23:49;20.60;55.60
14775;DHT22;7479;47.042;15.160;2023-02-13T14:29:01;20.40;55.60
14775;DHT22;7479;47.042;15.160;2023-02-13T14:34:00;20.50;54.40
14775;DHT22;7479;47.042;15.160;2023-02-13T14:38:55;20.40;54.70
14775;DHT22;7479;47.042;15.160;2023-02-13T14:43:50;20.40;54.50
14775;DHT22;7479;47.042;15.160;2023-02-13T14:48:52;20.50;54.30
14775;DHT22;7479;47.042;15.160;2023-02-13T14:53:52;20.20;54.40
14775;DHT22;7479;47.042;15.160;2023-02-13T14:58:50;19.80;54.80
14775;DHT22;7479;47.042;15.160;2023-02-13T15:03:46;18.00;55.70
14775;DHT22;7479;47.042;15.160;2023-02-13T15:08:45;14.70;61.00
14775;DHT22;7479;47.042;15.160;2023-02-13T15:13:43;12.80;66.80
14775;DHT22;7479;47.042;15.160;2023-02-13T15:18:40;11.90;70.70
14775;DHT22;7479;47.042;15.160;2023-02-13T15:23:35;11.40;73.10
14775;DHT22;7479;47.042;15.160;2023-02-13T15:28:29;11.00;75.10
14775;DHT22;7479;47.042;15.160;2023-02-13T15:33:25;10.70;76.50
14775;DHT22;7479;47.042;15.160;2023-02-13T15:38:22;10.40;77.90
14775;DHT22;7479;47.042;15.160;2023-02-13T15:43:21;10.10;79.30
14775;DHT22;7479;47.042;15.160;2023-02-13T15:48:16;9.60;82.40
14775;DHT22;7479;47.042;15.160;2023-02-13T15:53:15;9.30;84.30
14775;DHT22;7479;47.042;15.160;2023-02-13T15:58:12;9.10;85.50
14775;DHT22;7479;47.042;15.160;2023-02-13T16:03:11;8.90;87.10
14775;DHT22;7479;47.042;15.160;2023-02-13T16:08:28;8.70;88.80
14775;DHT22;7479;47.042;15.160;2023-02-13T16:13:22;8.30;90.10
14775;DHT22;7479;47.042;15.160;2023-02-13T16:18:18;8.10;90.80
14775;DHT22;7479;47.042;15.160;2023-02-13T16:23:15;7.90;91.30
14775;DHT22;7479;47.042;15.160;2023-02-13T16:28:16;7.70;92.00
14775;DHT22;7479;47.042;15.160;2023-02-13T16:33:22;7.50;92.50
14775;DHT22;7479;47.042;15.160;2023-02-13T16:38:31;7.30;93.00
14775;DHT22;7479;47.042;15.160;2023-02-13T16:43:35;7.00;94.00
14775;DHT22;7479;47.042;15.160;2023-02-13T16:48:29;6.70;94.60
14775;DHT22;7479;47.042;15.160;2023-02-13T16:53:23;6.50;95.10
14775;DHT22;7479;47.042;15.160;2023-02-13T16:58:17;6.30;95.70
14775;DHT22;7479;47.042;15.160;2023-02-13T17:03:12;6.00;96.60
14775;DHT22;7479;47.042;15.160;2023-02-13T17:08:06;5.90;97.20
14775;DHT22;7479;47.042;15.160;2023-02-13T17:13:02;5.80;97.70
